KLBL/LBL METAR and TAF weather

Enter ICAO airport designator
Station Type Date Time Source
KLBL METAR 2019/10/23 07:56 UTC NOAA

KLBL 230756Z AUTO 20008KT 10SM CLR 06/M03 A2989 RMK AO2 SLP114 T00561028


Station Type Date Time Source
KLBL Decoded METAR 2019/10/23 07:56 UTC NOAA

Liberal, Liberal Municipal Airport, KS, United States (KLBL) 37-03N 100-58W
Oct 23, 2019 - 03:56 AM EDT / 2019.10.23 0756 UTC
Wind: from the SSW (200 degrees) at 9 MPH (8 KT):0
Visibility: 10 mile(s):0
Sky conditions: clear
Temperature: 42.1 F (5.6 C)
Dew Point: 27.0 F (-2.8 C)
Relative Humidity: 54%
Pressure (altimeter): 29.89 in. Hg (1012 hPa)
ob: KLBL 230756Z AUTO 20008KT 10SM CLR 06/M03 A2989 RMK AO2 SLP114 T00561028
cycle: 8

Station Type Date Time Source
KLBL TAF 2019/10/23 06:21 UTC NOAA

TAF KLBL 230520Z 2306/2406 21008KT P6SM SKC
FM231600 01015G25KT P6SM FEW250

Example: see airport list